Time;durP1;ratioP1;P1;durP2;ratioP2;P2;SDS_P1;SDS_P2;PMS_P1;PMS_P2;Temp;Humidity;BMP_temperature;BMP_pressure;BME280_temperature;BME280_humidity;BME280_pressure;Samples;Min_cycle;Max_cycle;Signal;HPM_P1;HPM_P2
2023/07/09 00:02:16;;;;;;;30.58;17.05;;;;;;;23.20;100.00;101377.94;6194198;23;20376;-76
2023/07/09 00:04:42;;;;;;;33.10;17.63;;;;;;;23.20;100.00;101375.13;6219846;23;20008;-76
2023/07/09 00:07:17;;;;;;;30.20;16.70;;;;;;;23.15;100.00;101378.50;6245763;23;20008;-76
2023/07/09 00:09:43;;;;;;;28.98;17.70;;;;;;;23.10;100.00;101372.63;6245896;23;20006;-75
2023/07/09 00:12:16;;;;;;;27.08;16.35;;;;;;;23.12;100.00;101384.50;6248154;23;20051;-79
2023/07/09 00:14:42;;;;;;;32.28;17.73;;;;;;;23.08;100.00;101372.81;6194894;23;20004;-80
2023/07/09 00:17:22;;;;;;;33.35;18.45;;;;;;;22.97;100.00;101375.19;6169996;23;20019;-80
2023/07/09 00:19:49;;;;;;;40.53;20.70;;;;;;;22.84;100.00;101362.75;6247310;23;20506;-80
2023/07/09 00:22:17;;;;;;;40.53;18.00;;;;;;;22.89;100.00;101377.00;6195465;23;20083;-79
2023/07/09 00:24:50;;;;;;;29.48;16.27;;;;;;;23.02;100.00;101373.56;6220566;23;20424;-79
2023/07/09 00:27:30;;;;;;;33.55;18.60;;;;;;;22.85;100.00;101372.84;6220427;23;20095;-80
2023/07/09 00:29:56;;;;;;;31.98;18.48;;;;;;;22.46;100.00;101379.50;6195665;23;20078;-80
2023/07/09 00:32:21;;;;;;;36.97;16.98;;;;;;;22.17;100.00;101378.31;6169610;23;20103;-79
2023/07/09 00:34:50;;;;;;;34.85;17.23;;;;;;;22.30;100.00;101386.09;6219924;23;20059;-79
2023/07/09 00:37:21;;;;;;;28.35;17.40;;;;;;;22.26;100.00;101384.69;6197100;23;20015;-80
2023/07/09 00:39:48;;;;;;;31.23;17.80;;;;;;;21.92;100.00;101369.22;6223693;23;20008;-80
2023/07/09 00:42:20;;;;;;;34.53;17.55;;;;;;;22.18;100.00;101380.00;6197318;23;20008;-80
2023/07/09 00:44:51;;;;;;;33.28;17.15;;;;;;;22.24;100.00;101374.78;6247993;23;20015;-78
2023/07/09 00:47:44;;;;;;;29.27;16.08;;;;;;;22.19;100.00;101378.97;6220152;23;20008;-79
2023/07/09 00:50:47;;;;;;;35.53;17.70;;;;;;;22.02;100.00;101381.00;6194362;23;20089;-80
2023/07/09 00:53:31;;;;;;;32.73;17.63;;;;;;;22.19;100.00;101378.13;6173663;23;20016;-80
2023/07/09 00:56:05;;;;;;;30.90;17.20;;;;;;;22.13;100.00;101390.88;6244686;23;20030;-79
2023/07/09 00:58:33;;;;;;;34.13;18.27;;;;;;;22.18;100.00;101391.16;6246577;23;20004;-79
2023/07/09 01:01:05;;;;;;;28.88;17.80;;;;;;;22.15;100.00;101376.72;6194777;23;20054;-80
2023/07/09 01:03:59;;;;;;;;;;;;;;;22.15;100.00;101390.69;6220226;23;20004;-79
2023/07/09 01:06:39;;;;;;;38.60;17.77;;;;;;;22.08;100.00;101387.75;6188910;23;20239;-80
2023/07/09 01:09:06;;;;;;;34.08;17.20;;;;;;;22.14;100.00;101377.81;6194419;23;20417;-80
2023/07/09 01:11:31;;;;;;;41.70;17.70;;;;;;;22.11;100.00;101381.81;6219470;23;20038;-80
2023/07/09 01:14:01;;;;;;;31.35;17.83;;;;;;;22.18;100.00;101370.78;6194332;23;20012;-79
2023/07/09 01:16:43;;;;;;;33.65;17.08;;;;;;;22.29;100.00;101381.56;6194292;23;20098;-79
2023/07/09 01:19:08;;;;;;;32.22;16.33;;;;;;;22.24;100.00;101389.59;6219721;23;20332;-80
2023/07/09 01:21:34;;;;;;;36.00;16.88;;;;;;;22.11;100.00;101380.97;6194531;23;20027;-80
2023/07/09 01:24:15;;;;;;;34.25;16.70;;;;;;;22.24;100.00;101377.56;6219117;23;20015;-79
2023/07/09 01:26:40;;;;;;;27.60;17.50;;;;;;;22.28;100.00;101390.06;6219810;23;20440;-79
2023/07/09 01:29:06;;;;;;;29.63;17.90;;;;;;;22.37;100.00;101377.84;6194272;23;20004;-79
2023/07/09 01:31:32;;;;;;;29.02;17.13;;;;;;;22.38;100.00;101376.75;6194106;23;20016;-79
2023/07/09 01:33:58;;;;;;;28.98;16.10;;;;;;;22.23;100.00;101375.81;6193995;23;20012;-79
2023/07/09 01:36:24;;;;;;;30.35;16.38;;;;;;;22.15;100.00;101379.53;6219464;23;20103;-80
2023/07/09 01:38:53;;;;;;;31.98;16.75;;;;;;;22.18;100.00;101371.66;6245927;23;20012;-79
2023/07/09 01:41:19;;;;;;;26.13;16.80;;;;;;;22.11;100.00;101379.03;6194630;23;20008;-79
2023/07/09 01:43:45;;;;;;;28.80;17.75;;;;;;;22.12;100.00;101386.34;6194235;23;20147;-79
2023/07/09 01:46:15;;;;;;;33.25;17.92;;;;;;;22.00;100.00;101362.72;6194345;23;20012;-79
2023/07/09 01:48:41;;;;;;;36.47;17.27;;;;;;;22.11;100.00;101365.09;6194160;23;20058;-79
2023/07/09 01:51:11;;;;;;;39.30;16.15;;;;;;;22.09;100.00;101388.66;6194481;23;20008;-79
2023/07/09 01:53:40;;;;;;;27.47;15.13;;;;;;;22.13;100.00;101385.28;6246523;23;20011;-78
2023/07/09 01:56:07;;;;;;;32.83;17.25;;;;;;;22.21;100.00;101385.22;6219565;23;20431;-79
2023/07/09 01:58:33;;;;;;;25.48;16.70;;;;;;;22.10;100.00;101380.06;6194358;23;20042;-79
2023/07/09 02:01:02;;;;;;;25.77;16.77;;;;;;;22.29;100.00;101391.84;6219183;23;20016;-79
2023/07/09 02:03:27;;;;;;;25.73;16.83;;;;;;;22.15;100.00;101376.72;6194299;23;20035;-80
2023/07/09 02:05:53;;;;;;;27.42;15.82;;;;;;;22.17;100.00;101388.59;6171400;23;20432;-79
2023/07/09 02:08:19;;;;;;;27.25;16.77;;;;;;;22.05;100.00;101388.13;6221317;23;20008;-79
2023/07/09 02:10:48;;;;;;;31.33;16.35;;;;;;;21.96;100.00;101394.81;6220934;23;20020;-79
2023/07/09 02:13:13;;;;;;;30.90;17.85;;;;;;;21.82;100.00;101390.88;6196159;23;20016;-79
2023/07/09 02:15:43;;;;;;;33.80;16.70;;;;;;;21.83;100.00;101392.63;6195683;23;20821;-79
2023/07/09 02:18:11;;;;;;;36.17;16.85;;;;;;;21.77;100.00;101398.94;6171912;23;20008;-79
2023/07/09 02:20:36;;;;;;;34.53;17.73;;;;;;;21.82;100.00;101400.13;6221135;23;20012;-79
2023/07/09 02:23:02;;;;;;;29.42;17.45;;;;;;;21.74;100.00;101393.72;6171590;23;20012;-78
2023/07/09 02:25:28;;;;;;;28.45;17.02;;;;;;;21.63;100.00;101398.66;6196014;23;20008;-79
2023/07/09 02:27:53;;;;;;;27.38;17.75;;;;;;;21.50;100.00;101403.03;6220647;23;20103;-79
2023/07/09 02:30:19;;;;;;;34.17;18.23;;;;;;;21.47;100.00;101393.13;6195296;23;20010;-79
2023/07/09 02:32:44;;;;;;;35.50;17.20;;;;;;;21.36;100.00;101390.72;6220672;23;20431;-79
2023/07/09 02:35:10;;;;;;;35.53;18.23;;;;;;;21.43;100.00;101387.03;6171243;23;20443;-79
2023/07/09 02:37:36;;;;;;;32.30;17.23;;;;;;;21.51;100.00;101400.06;6247546;23;20014;-79
2023/07/09 02:40:03;;;;;;;29.80;17.40;;;;;;;21.41;100.00;101388.25;6171446;23;20016;-79
2023/07/09 02:42:29;;;;;;;30.23;18.02;;;;;;;21.54;100.00;101398.88;6195510;23;20043;-79
2023/07/09 02:44:55;;;;;;;30.48;18.58;;;;;;;21.41;100.00;101389.13;6221548;23;20012;-80
2023/07/09 02:47:21;;;;;;;29.65;18.05;;;;;;;21.34;100.00;101390.88;6195300;23;20016;-79
2023/07/09 02:49:46;;;;;;;34.83;18.75;;;;;;;21.35;100.00;101395.44;6170302;23;20095;-79
2023/07/09 02:52:12;;;;;;;31.33;19.08;;;;;;;21.26;100.00;101397.34;6195721;23;20044;-79
2023/07/09 02:54:37;;;;;;;39.28;19.77;;;;;;;21.32;100.00;101404.13;6195382;23;20452;-79
2023/07/09 02:57:03;;;;;;;40.45;21.00;;;;;;;21.30;100.00;101398.75;6195829;23;20098;-80
2023/07/09 02:59:30;;;;;;;40.63;20.15;;;;;;;21.20;100.00;101398.09;6220420;23;20015;-79
2023/07/09 03:01:56;;;;;;;35.95;20.50;;;;;;;21.08;100.00;101380.84;6196236;23;20428;-80
2023/07/09 03:04:21;;;;;;;35.33;20.48;;;;;;;21.11;100.00;101388.88;6170995;23;20016;-80
2023/07/09 03:06:47;;;;;;;37.25;20.00;;;;;;;21.16;100.00;101398.63;6220594;23;20428;-79
2023/07/09 03:09:13;;;;;;;36.00;20.17;;;;;;;21.09;100.00;101395.69;6220905;23;20038;-78
2023/07/09 03:11:38;;;;;;;32.35;19.38;;;;;;;21.06;100.00;101409.94;6194991;23;20035;-79
2023/07/09 03:14:04;;;;;;;33.83;20.92;;;;;;;20.89;100.00;101398.84;6170205;23;20094;-79
2023/07/09 03:16:34;;;;;;;37.05;20.55;;;;;;;20.87;100.00;101402.84;6220355;23;20004;-79
2023/07/09 03:19:00;;;;;;;34.90;18.98;;;;;;;20.91;100.00;101399.53;6195394;23;20008;-80
2023/07/09 03:21:27;;;;;;;36.55;18.85;;;;;;;20.96;100.00;101382.28;6171124;23;20013;-80
2023/07/09 03:23:53;;;;;;;34.75;19.63;;;;;;;21.04;100.00;101409.25;6195396;23;20097;-78
2023/07/09 03:26:19;;;;;;;29.27;19.75;;;;;;;20.91;100.00;101402.31;6170355;23;20012;-79
2023/07/09 03:28:45;;;;;;;32.20;19.35;;;;;;;20.78;100.00;101410.34;6220701;23;20043;-79
2023/07/09 03:31:11;;;;;;;34.75;18.65;;;;;;;20.90;100.00;101408.91;6219900;23;20015;-79
2023/07/09 03:33:37;;;;;;;35.72;20.08;;;;;;;20.80;100.00;101410.16;6220655;23;20042;-79
2023/07/09 03:36:04;;;;;;;38.03;20.17;;;;;;;20.75;100.00;101405.13;6220670;23;20004;-79
2023/07/09 03:38:30;;;;;;;38.13;20.65;;;;;;;20.90;100.00;101402.47;6195585;23;20010;-79
2023/07/09 03:40:55;;;;;;;34.58;21.77;;;;;;;20.87;100.00;101405.63;6195955;23;20331;-79
2023/07/09 03:43:22;;;;;;;34.35;20.27;;;;;;;20.74;100.00;101403.34;6195327;23;20078;-80
2023/07/09 03:45:48;;;;;;;42.55;21.77;;;;;;;20.72;100.00;101406.31;6220178;23;20379;-80
2023/07/09 03:48:15;;;;;;;39.33;21.88;;;;;;;20.72;100.00;101413.81;6195088;23;20008;-79
2023/07/09 03:50:43;;;;;;;38.60;21.35;;;;;;;20.70;100.00;101405.63;6220708;23;20007;-79
2023/07/09 03:53:09;;;;;;;47.17;22.92;;;;;;;20.75;100.00;101411.53;6194505;23;20085;-79
2023/07/09 03:55:34;;;;;;;31.13;20.80;;;;;;;20.77;100.00;101404.94;6194950;23;20771;-79
2023/07/09 03:58:02;;;;;;;36.33;20.90;;;;;;;20.81;100.00;101414.66;6195541;23;20087;-80
2023/07/09 04:00:28;;;;;;;26.63;18.75;;;;;;;20.90;100.00;101405.25;6171021;23;20012;-79
2023/07/09 04:02:55;;;;;;;34.65;19.92;;;;;;;20.80;100.00;101413.81;6220533;23;20008;-80
2023/07/09 04:05:20;;;;;;;32.55;19.65;;;;;;;20.66;100.00;101429.31;6195367;23;20002;-80
2023/07/09 04:07:45;;;;;;;38.35;19.67;;;;;;;20.65;100.00;101404.44;6195263;23;20023;-79
2023/07/09 04:10:13;;;;;;;34.50;20.40;;;;;;;20.79;100.00;101409.28;6245256;23;20065;-79
2023/07/09 04:12:39;;;;;;;34.13;19.88;;;;;;;20.66;100.00;101407.03;6220542;23;20356;-80
2023/07/09 04:15:05;;;;;;;32.67;21.05;;;;;;;20.50;100.00;101410.66;6195714;23;20036;-79
2023/07/09 04:17:31;;;;;;;34.95;20.55;;;;;;;20.37;100.00;101418.66;6219690;23;20039;-78
2023/07/09 04:19:57;;;;;;;36.78;22.40;;;;;;;20.61;100.00;101408.56;6195263;23;20009;-79
2023/07/09 04:22:22;;;;;;;34.33;21.35;;;;;;;20.72;100.00;101416.59;6220149;23;20332;-80
2023/07/09 04:24:49;;;;;;;35.60;20.13;;;;;;;20.70;100.00;101410.34;6194799;23;20331;-79
2023/07/09 04:27:15;;;;;;;29.05;19.83;;;;;;;20.82;100.00;101414.47;6219835;23;20368;-79
2023/07/09 04:29:41;;;;;;;33.72;21.42;;;;;;;20.80;100.00;101411.00;6219791;23;20435;-80
2023/07/09 04:32:11;;;;;;;36.35;21.15;;;;;;;20.71;100.00;101407.38;6214873;23;20067;-79
2023/07/09 04:34:38;;;;;;;34.00;21.00;;;;;;;20.84;100.00;101405.97;6216713;23;20016;-79
2023/07/09 04:37:05;;;;;;;40.42;21.55;;;;;;;20.69;100.00;101398.34;6216139;23;20009;-79
2023/07/09 04:39:33;;;;;;;36.13;22.17;;;;;;;20.72;100.00;101395.19;6214986;23;20005;-79
2023/07/09 04:41:59;;;;;;;38.33;24.55;;;;;;;20.71;100.00;101396.25;6164990;23;20024;-79
2023/07/09 04:44:24;;;;;;;48.92;24.30;;;;;;;20.89;100.00;101412.75;6189263;23;20344;-78
2023/07/09 04:46:50;;;;;;;39.13;26.38;;;;;;;20.95;100.00;101397.25;6189363;23;20013;-79
2023/07/09 04:49:16;;;;;;;50.10;27.80;;;;;;;21.15;100.00;101403.28;6189352;23;20500;-79
2023/07/09 04:51:42;;;;;;;41.65;27.48;;;;;;;21.11;100.00;101394.44;6189477;23;20077;-80
2023/07/09 04:54:07;;;;;;;39.08;27.08;;;;;;;21.41;100.00;101408.63;6189620;23;20051;-80
2023/07/09 04:56:33;;;;;;;44.00;28.52;;;;;;;21.56;100.00;101411.59;6165162;23;20009;-79
2023/07/09 04:58:58;;;;;;;43.28;27.42;;;;;;;21.60;100.00;101410.16;6189541;23;20004;-79
2023/07/09 05:01:24;;;;;;;39.90;27.70;;;;;;;21.57;100.00;101412.44;6216754;23;20390;-80
2023/07/09 05:03:49;;;;;;;37.72;29.52;;;;;;;21.76;100.00;101412.00;6217143;23;20095;-79
2023/07/09 05:06:15;;;;;;;40.50;28.77;;;;;;;21.82;100.00;101410.41;6190790;23;20379;-80
2023/07/09 05:08:41;;;;;;;41.50;27.52;;;;;;;21.87;100.00;101409.84;6189873;23;20015;-79
2023/07/09 05:11:07;;;;;;;40.53;25.33;;;;;;;21.91;100.00;101409.31;6190325;23;20325;-79
2023/07/09 05:13:33;;;;;;;41.83;24.33;;;;;;;22.07;100.00;101410.25;6190374;23;20013;-79
2023/07/09 05:15:58;;;;;;;36.72;24.58;;;;;;;22.08;100.00;101418.44;6216303;23;20007;-80
2023/07/09 05:18:24;;;;;;;35.85;22.65;;;;;;;22.19;100.00;101404.09;6165890;23;20015;-79
2023/07/09 05:20:49;;;;;;;42.92;26.63;;;;;;;22.02;100.00;101405.22;6189846;23;20063;-79
2023/07/09 05:23:15;;;;;;;38.45;24.67;;;;;;;22.32;100.00;101420.25;6188940;23;20094;-80
2023/07/09 05:25:41;;;;;;;32.35;24.00;;;;;;;22.58;100.00;101419.00;6214620;23;20378;-79
2023/07/09 05:28:06;;;;;;;38.60;24.60;;;;;;;22.69;100.00;101410.16;6215186;23;20013;-79
2023/07/09 05:30:32;;;;;;;38.35;24.08;;;;;;;22.83;100.00;101413.22;6218434;23;20004;-79
2023/07/09 05:32:59;;;;;;;36.00;24.90;;;;;;;22.98;100.00;101418.81;6194428;23;20019;-80
2023/07/09 05:35:25;;;;;;;41.10;28.20;;;;;;;23.07;100.00;101429.75;6195066;23;20012;-80
2023/07/09 05:37:54;;;;;;;40.60;25.33;;;;;;;23.39;100.00;101413.69;6195393;23;20062;-80
2023/07/09 05:40:21;;;;;;;36.72;25.55;;;;;;;23.86;100.00;101419.97;6220936;23;20016;-80
2023/07/09 05:42:46;;;;;;;37.28;24.63;;;;;;;23.94;100.00;101404.97;6221759;23;20424;-80
2023/07/09 05:45:12;;;;;;;36.38;23.38;;;;;;;24.55;100.00;101407.38;6171524;23;20038;-80
2023/07/09 05:47:37;;;;;;;38.33;22.42;;;;;;;24.77;100.00;101420.31;6172351;23;20012;-79
2023/07/09 05:50:03;;;;;;;38.15;22.30;;;;;;;24.88;100.00;101415.25;6197105;23;20000;-80
2023/07/09 05:52:29;;;;;;;32.72;19.63;;;;;;;24.96;100.00;101412.31;6221816;23;20026;-80
2023/07/09 05:54:55;;;;;;;29.92;18.55;;;;;;;25.22;100.00;101402.34;6221303;23;20063;-79
2023/07/09 05:57:21;;;;;;;49.42;38.30;;;;;;;25.08;100.00;101407.84;6221376;23;20034;-79
2023/07/09 05:59:46;;;;;;;38.25;20.63;;;;;;;25.43;100.00;101413.53;6196027;23;20088;-78
2023/07/09 06:02:14;;;;;;;37.00;18.90;;;;;;;25.57;100.00;101417.25;6195834;23;20347;-79
2023/07/09 06:04:39;;;;;;;30.40;17.77;;;;;;;25.86;100.00;101418.91;6220781;23;20010;-78
2023/07/09 06:07:05;;;;;;;29.25;17.05;;;;;;;26.18;100.00;101421.22;6220780;23;20012;-78
2023/07/09 06:09:31;;;;;;;28.98;17.80;;;;;;;26.13;100.00;101421.00;6221565;23;20008;-78
2023/07/09 06:11:57;;;;;;;30.67;16.52;;;;;;;26.55;100.00;101416.97;6196108;23;20018;-78
2023/07/09 06:14:26;;;;;;;30.05;16.20;;;;;;;26.69;100.00;101411.41;6221045;23;20012;-78
2023/07/09 06:16:52;;;;;;;29.42;16.23;;;;;;;26.74;100.00;101420.94;6220492;23;20019;-78
2023/07/09 06:19:17;;;;;;;34.33;17.35;;;;;;;27.14;100.00;101420.06;6195617;23;20004;-79
2023/07/09 06:21:42;;;;;;;25.20;14.77;;;;;;;27.54;100.00;101428.44;6171207;23;20143;-78
2023/07/09 06:24:08;;;;;;;31.23;16.65;;;;;;;27.43;100.00;101418.75;6220704;23;20083;-78
2023/07/09 06:26:34;;;;;;;26.50;14.55;;;;;;;27.64;100.00;101425.16;6220684;23;20015;-78
2023/07/09 06:29:00;;;;;;;27.88;15.30;;;;;;;27.92;100.00;101430.47;6195429;23;20019;-78
2023/07/09 06:31:25;;;;;;;28.98;14.20;;;;;;;28.36;98.29;101433.53;6220634;23;20522;-78
2023/07/09 06:33:51;;;;;;;25.10;14.15;;;;;;;28.35;98.84;101432.69;6220676;23;20081;-79
2023/07/09 06:36:18;;;;;;;24.35;14.80;;;;;;;28.44;96.06;101436.09;6219882;23;20090;-79
2023/07/09 06:38:44;;;;;;;24.98;14.35;;;;;;;28.38;99.17;101440.69;6195244;23;20028;-79
2023/07/09 06:41:11;;;;;;;24.40;13.40;;;;;;;28.73;97.03;101434.63;6221114;23;20318;-79
2023/07/09 06:43:39;;;;;;;27.73;14.30;;;;;;;28.66;97.34;101433.78;6220411;23;20008;-78
2023/07/09 06:46:06;;;;;;;25.48;14.15;;;;;;;28.89;94.48;101436.03;6195438;23;20412;-79
2023/07/09 06:48:32;;;;;;;25.15;14.10;;;;;;;28.85;93.49;101428.25;6195111;23;20012;-79
2023/07/09 06:50:59;;;;;;;20.95;12.98;;;;;;;29.08;91.77;101430.44;6246869;23;20022;-80
2023/07/09 06:53:26;;;;;;;21.27;12.93;;;;;;;29.04;90.36;101424.41;6171064;23;20054;-79
2023/07/09 06:55:58;;;;;;;23.75;13.07;;;;;;;29.31;91.19;101435.44;6220945;23;20004;-80
2023/07/09 06:58:25;;;;;;;21.00;13.55;;;;;;;29.51;91.17;101435.25;6197432;23;20035;-79
2023/07/09 07:00:51;;;;;;;21.15;12.30;;;;;;;30.19;84.87;101430.53;6195318;23;20123;-78
2023/07/09 07:03:17;;;;;;;22.63;12.80;;;;;;;30.08;87.26;101437.00;6220827;23;20039;-79
2023/07/09 07:05:53;;;;;;;21.00;11.98;;;;;;;30.16;85.59;101443.16;6195535;23;20012;-79
2023/07/09 07:08:20;;;;;;;17.05;11.52;;;;;;;30.47;83.51;101434.72;6220394;23;20014;-79
2023/07/09 07:10:48;;;;;;;18.25;11.70;;;;;;;30.75;84.14;101437.75;6194855;23;20003;-79
2023/07/09 07:13:14;;;;;;;20.25;12.20;;;;;;;30.74;82.24;101438.84;6195055;23;20347;-79
2023/07/09 07:15:40;;;;;;;19.17;11.82;;;;;;;30.56;81.60;101436.97;6220439;23;20083;-79
2023/07/09 07:18:06;;;;;;;22.25;11.30;;;;;;;30.83;78.83;101430.03;6170802;23;20449;-79
2023/07/09 07:20:33;;;;;;;17.65;10.55;;;;;;;31.16;77.97;101429.50;6194872;23;20012;-79
2023/07/09 07:22:59;;;;;;;18.35;11.18;;;;;;;31.28;76.51;101432.31;6195350;23;20008;-79
2023/07/09 07:25:25;;;;;;;17.75;10.68;;;;;;;31.07;78.74;101426.16;6170088;23;20514;-78
2023/07/09 07:27:51;;;;;;;21.42;10.68;;;;;;;31.60;77.07;101424.34;6194657;23;20424;-79
2023/07/09 07:30:17;;;;;;;16.52;9.95;;;;;;;31.40;77.64;101424.72;6218744;23;20015;-79
2023/07/09 07:32:47;;;;;;;17.08;10.95;;;;;;;31.98;72.46;101422.03;6246863;23;20011;-79
2023/07/09 07:35:13;;;;;;;19.75;11.50;;;;;;;31.82;71.51;101418.00;6220762;23;20091;-79
2023/07/09 07:37:40;;;;;;;20.58;10.30;;;;;;;30.95;76.80;101425.28;6169954;23;20042;-79
2023/07/09 07:40:06;;;;;;;18.80;10.43;;;;;;;31.62;75.81;101426.91;6170156;23;20040;-79
2023/07/09 07:42:32;;;;;;;18.27;10.27;;;;;;;31.77;73.59;101420.75;6146084;23;20016;-79
2023/07/09 07:44:58;;;;;;;16.42;9.48;;;;;;;32.49;70.60;101427.91;6219945;23;20463;-79
2023/07/09 07:47:23;;;;;;;15.60;8.57;;;;;;;32.12;71.69;101419.78;6195484;23;20073;-79
2023/07/09 07:49:50;;;;;;;18.40;9.05;;;;;;;32.55;68.28;101422.06;6195764;23;20004;-79
2023/07/09 07:52:15;;;;;;;14.68;9.48;;;;;;;32.64;67.17;101421.69;6246214;23;20027;-79
2023/07/09 07:54:41;;;;;;;14.43;8.48;;;;;;;32.75;65.52;101420.75;6195090;23;20111;-79
2023/07/09 07:57:09;;;;;;;20.35;8.95;;;;;;;32.27;69.70;101430.56;6195607;23;20083;-79
2023/07/09 07:59:35;;;;;;;18.80;8.73;;;;;;;32.72;66.94;101421.25;6219694;23;20012;-79
2023/07/09 08:02:02;;;;;;;14.35;8.13;;;;;;;32.34;67.86;101419.97;6194457;23;20039;-79
2023/07/09 08:04:28;;;;;;;13.65;8.68;;;;;;;33.46;63.72;101423.91;6195535;23;20142;-79
2023/07/09 08:06:53;;;;;;;15.13;7.88;;;;;;;33.02;67.45;101429.44;6194119;23;20360;-79
2023/07/09 08:09:19;;;;;;;14.65;8.43;;;;;;;33.59;63.29;101417.00;6246566;23;20018;-79
2023/07/09 08:11:44;;;;;;;18.13;9.18;;;;;;;33.45;64.13;101429.84;6194870;23;20523;-79
2023/07/09 08:14:11;;;;;;;13.82;8.05;;;;;;;32.94;68.19;101422.22;6219956;23;20063;-79
2023/07/09 08:16:36;;;;;;;13.88;7.93;;;;;;;33.74;63.74;101418.38;6246376;23;20023;-79
2023/07/09 08:19:02;;;;;;;25.48;9.20;;;;;;;33.79;61.62;101418.44;6220043;23;20016;-80
2023/07/09 08:21:27;;;;;;;15.02;8.80;;;;;;;34.25;57.79;101419.03;6194475;23;20005;-80
2023/07/09 08:23:53;;;;;;;12.95;7.55;;;;;;;32.65;58.50;101424.25;6219150;23;20023;-79
2023/07/09 08:26:18;;;;;;;14.15;7.93;;;;;;;32.91;59.42;101413.34;6194077;23;20004;-80
2023/07/09 08:28:44;;;;;;;15.00;8.30;;;;;;;33.98;57.10;101419.81;6245888;23;20081;-80
2023/07/09 08:31:09;;;;;;;12.43;7.55;;;;;;;33.48;56.24;101415.97;6218394;23;20016;-80
2023/07/09 08:33:35;;;;;;;11.43;7.30;;;;;;;34.10;54.99;101413.13;6193715;23;20377;-80
2023/07/09 08:36:04;;;;;;;17.13;7.18;;;;;;;34.62;51.66;101418.28;6218938;23;20105;-79
2023/07/09 08:38:30;;;;;;;13.23;6.32;;;;;;;33.86;51.41;101408.59;6219099;23;20012;-79
2023/07/09 08:40:59;;;;;;;10.82;6.22;;;;;;;33.82;52.16;101403.69;6169254;23;20095;-80
2023/07/09 08:44:02;;;;;;;10.50;6.28;;;;;;;33.94;51.70;101409.25;6219413;23;20107;-79
2023/07/09 08:47:07;;;;;;;14.85;6.15;;;;;;;33.91;51.94;101402.13;6219393;23;20014;-80
2023/07/09 08:49:46;;;;;;;14.73;6.38;;;;;;;34.76;50.35;101405.38;6226672;23;20079;-80
2023/07/09 08:52:36;;;;;;;10.02;6.20;;;;;;;35.17;47.17;101410.50;6219733;23;20376;-80
2023/07/09 08:55:15;;;;;;;13.18;6.40;;;;;;;34.36;50.27;101405.78;6219391;23;20091;-79
2023/07/09 08:57:45;;;;;;;14.40;5.38;;;;;;;34.54;49.25;101405.41;6219399;23;20413;-79
2023/07/09 09:00:22;;;;;;;10.65;5.30;;;;;;;34.33;46.89;101406.31;6219046;23;20079;-79
2023/07/09 09:02:56;;;;;;;11.32;5.53;;;;;;;34.82;46.22;101400.56;6219099;23;20008;-79
2023/07/09 09:05:23;;;;;;;10.15;6.10;;;;;;;34.35;47.20;101404.91;6219159;23;20081;-80
2023/07/09 09:08:27;;;;;;;12.65;5.57;;;;;;;35.22;45.76;101402.00;6218797;23;20015;-80
2023/07/09 09:11:05;;;;;;;13.20;5.82;;;;;;;35.14;44.71;101408.19;6219030;23;20016;-80
2023/07/09 09:13:31;;;;;;;18.90;6.10;;;;;;;35.06;45.01;101400.16;6245179;23;20004;-79
2023/07/09 09:16:04;;;;;;;15.95;5.95;;;;;;;34.88;46.08;101405.19;6194244;23;20024;-79
2023/07/09 09:18:40;;;;;;;18.63;5.68;;;;;;;34.71;46.70;101391.03;6193821;23;20431;-80
2023/07/09 09:21:20;;;;;;;17.02;6.10;;;;;;;34.63;48.20;101397.22;6193907;23;20008;-79
2023/07/09 09:23:52;;;;;;;13.38;5.53;;;;;;;35.56;44.51;101412.22;6193723;23;20016;-80
2023/07/09 09:26:23;;;;;;;10.57;5.28;;;;;;;35.46;45.51;101399.63;6245897;23;20008;-80
2023/07/09 09:28:49;;;;;;;12.45;5.05;;;;;;;35.12;44.77;101399.09;6245679;23;20019;-79
2023/07/09 09:31:16;;;;;;;8.13;5.22;;;;;;;35.45;43.57;101403.63;6194021;23;20013;-80
2023/07/09 09:33:46;;;;;;;10.18;5.93;;;;;;;34.86;44.77;101401.72;6218869;23;20012;-80
2023/07/09 09:36:21;;;;;;;20.20;6.22;;;;;;;35.22;43.80;101410.53;6219405;23;20458;-79
2023/07/09 09:38:47;;;;;;;16.33;5.20;;;;;;;34.95;44.53;101408.63;6219455;23;20016;-80
2023/07/09 09:41:18;;;;;;;10.13;5.15;;;;;;;35.31;43.88;101391.84;6193962;23;20008;-80
2023/07/09 09:43:46;;;;;;;12.45;5.20;;;;;;;35.39;44.45;101401.88;6219855;23;20012;-78
2023/07/09 09:46:32;;;;;;;16.05;5.70;;;;;;;35.02;43.37;101399.88;6246610;23;20008;-80
2023/07/09 09:49:02;;;;;;;11.48;5.55;;;;;;;34.96;43.05;101395.25;6246749;23;20023;-79
2023/07/09 09:51:28;;;;;;;10.68;5.03;;;;;;;36.30;40.06;101393.19;6220361;23;20382;-79
2023/07/09 09:54:02;;;;;;;19.85;5.63;;;;;;;35.76;41.84;101388.69;6220973;23;20027;-80
2023/07/09 09:56:30;;;;;;;9.23;5.72;;;;;;;35.65;41.10;101377.22;6195537;23;20004;-79
2023/07/09 09:58:57;;;;;;;14.40;5.05;;;;;;;36.55;40.48;101381.81;6220933;23;20542;-80
2023/07/09 10:01:29;;;;;;;10.57;5.20;;;;;;;36.14;40.93;101372.28;6196203;23;20012;-79
2023/07/09 10:03:58;;;;;;;11.60;5.45;;;;;;;36.55;38.72;101359.00;6220054;23;20050;-79
2023/07/09 10:06:37;;;;;;;14.45;5.43;;;;;;;35.39;40.94;101355.41;6246919;23;20416;-80
2023/07/09 10:09:09;;;;;;;14.05;5.88;;;;;;;35.38;42.41;101362.28;6246755;23;20321;-79
2023/07/09 10:11:48;;;;;;;13.77;5.97;;;;;;;36.17;42.64;101380.28;6219914;23;20020;-80
2023/07/09 10:14:26;;;;;;;16.33;6.22;;;;;;;35.88;42.32;101375.06;6194168;23;20035;-80
2023/07/09 10:17:02;;;;;;;13.50;5.65;;;;;;;35.56;45.00;101369.50;6219867;23;20087;-80
2023/07/09 10:19:47;;;;;;;11.02;5.85;;;;;;;37.32;40.89;101369.50;6220094;23;20068;-79
2023/07/09 10:22:38;;;;;;;12.23;6.22;;;;;;;37.13;41.08;101375.81;6195589;23;20436;-78
2023/07/09 10:25:45;;;;;;;19.43;6.53;;;;;;;36.78;42.81;101368.13;6196220;23;20057;-80
2023/07/09 10:28:31;;;;;;;9.95;5.95;;;;;;;36.53;44.12;101368.97;6140736;23;20012;-79
2023/07/09 10:31:20;;;;;;;13.73;5.70;;;;;;;36.03;43.30;101362.88;6247641;23;20452;-80
2023/07/09 10:34:01;;;;;;;13.93;5.93;;;;;;;36.04;43.00;101362.59;6161467;23;20021;-80
2023/07/09 10:37:04;;;;;;;14.00;5.82;;;;;;;35.75;44.67;101358.47;6161601;23;20025;-80
2023/07/09 10:39:38;;;;;;;;;;;;;;;36.66;39.96;101367.53;6161565;23;20048;-79
2023/07/09 10:42:12;;;;;;;14.00;5.68;;;;;;;36.49;41.48;101368.69;6187667;23;19914;-80
2023/07/09 10:44:42;;;;;;;9.57;4.70;;;;;;;36.51;39.44;101374.94;6210410;23;20318;-80
2023/07/09 10:47:30;;;;;;;13.38;5.35;;;;;;;35.59;42.60;101358.38;6160840;23;20013;-80
2023/07/09 10:49:58;;;;;;;13.13;5.13;;;;;;;35.67;41.93;101362.72;6186803;23;20016;-78
2023/07/09 10:52:34;;;;;;;10.70;5.72;;;;;;;36.07;41.09;101369.69;6185792;23;20008;-80
2023/07/09 10:55:30;;;;;;;13.20;5.63;;;;;;;36.35;39.88;101371.22;6185992;23;20092;-77
2023/07/09 10:58:04;;;;;;;10.27;5.03;;;;;;;35.23;41.81;101363.00;6159987;23;20039;-80
2023/07/09 11:00:37;;;;;;;12.65;5.10;;;;;;;35.49;40.03;101367.75;6186571;23;20036;-78
2023/07/09 11:03:35;;;;;;;10.63;4.95;;;;;;;35.85;40.43;101364.22;6160545;23;20048;-78
2023/07/09 11:06:02;;;;;;;12.82;5.18;;;;;;;35.86;40.11;101355.41;6155932;23;20016;-79
2023/07/09 11:08:36;;;;;;;9.75;5.32;;;;;;;35.98;40.73;101345.75;6186367;23;20013;-78
2023/07/09 11:11:07;;;;;;;11.90;4.80;;;;;;;35.97;41.15;101344.88;6160507;23;20005;-78
2023/07/09 11:13:44;;;;;;;10.90;4.90;;;;;;;35.78;40.26;101346.53;6185529;23;20417;-79
2023/07/09 11:16:16;;;;;;;19.70;5.03;;;;;;;35.44;39.24;101342.09;6184874;23;20009;-78
2023/07/09 11:18:54;;;;;;;13.23;5.85;;;;;;;35.31;41.01;101336.88;6159840;23;20005;-79